Time;durP1;ratioP1;P1;durP2;ratioP2;P2;SDS_P1;SDS_P2;PMS_P1;PMS_P2;Temp;Humidity;BMP_temperature;BMP_pressure;BME280_temperature;BME280_humidity;BME280_pressure;Samples;Min_cycle;Max_cycle;Signal;HPM_P1;HPM_P2
2021/03/05 00:02:06;;;;;;;25.67;16.15;;;19.60;99.90;;;;;;5013025;28;20030;-42
2021/03/05 00:04:32;;;;;;;27.88;16.00;;;19.60;99.90;;;;;;5006915;28;20034;-43
2021/03/05 00:06:57;;;;;;;30.73;15.52;;;19.60;99.90;;;;;;5008103;28;20076;-43
2021/03/05 00:09:23;;;;;;;28.83;14.85;;;19.60;99.90;;;;;;5012802;28;20026;-42
2021/03/05 00:11:49;;;;;;;27.42;16.00;;;19.60;99.90;;;;;;5013221;28;20415;-43
2021/03/05 00:14:15;;;;;;;28.52;15.25;;;19.60;99.90;;;;;;5012848;28;20026;-42
2021/03/05 00:16:41;;;;;;;22.45;14.18;;;19.60;99.90;;;;;;5013038;28;20104;-43
2021/03/05 00:19:06;;;;;;;31.15;16.33;;;19.50;99.90;;;;;;5013007;28;20050;-44
2021/03/05 00:21:33;;;;;;;31.15;15.05;;;19.50;99.90;;;;;;5012897;28;20409;-43
2021/03/05 00:23:59;;;;;;;32.65;15.07;;;19.50;99.90;;;;;;5011650;28;20113;-42
2021/03/05 00:26:25;;;;;;;28.60;15.02;;;19.50;99.90;;;;;;5012976;28;20101;-43
2021/03/05 00:28:51;;;;;;;26.17;13.38;;;19.50;99.90;;;;;;5012844;28;20476;-43
2021/03/05 00:31:16;;;;;;;27.40;13.23;;;19.50;99.90;;;;;;5012429;28;20499;-43
2021/03/05 00:33:42;;;;;;;23.83;13.65;;;19.50;99.90;;;;;;5012352;28;20107;-43
2021/03/05 00:36:08;;;;;;;25.92;13.20;;;19.50;99.90;;;;;;5011653;28;20053;-45
2021/03/05 00:38:34;;;;;;;25.63;13.40;;;19.50;99.90;;;;;;5010006;28;20037;-45
2021/03/05 00:41:00;;;;;;;26.40;12.27;;;19.50;99.90;;;;;;5012406;28;20058;-45
2021/03/05 00:43:26;;;;;;;27.38;13.48;;;19.40;99.90;;;;;;5012329;28;20508;-45
2021/03/05 00:45:52;;;;;;;34.20;15.15;;;19.40;99.90;;;;;;5012176;28;20036;-45
2021/03/05 00:48:18;;;;;;;26.92;12.00;;;19.40;99.90;;;;;;5012223;28;20030;-45
2021/03/05 00:50:44;;;;;;;23.90;12.80;;;19.40;99.90;;;;;;5012488;28;20018;-43
2021/03/05 00:53:10;;;;;;;23.77;11.98;;;19.40;99.90;;;;;;5012570;28;20491;-43
2021/03/05 00:55:36;;;;;;;25.27;12.85;;;19.40;99.90;;;;;;5012470;28;20085;-45
2021/03/05 00:58:02;;;;;;;26.98;13.27;;;19.40;99.90;;;;;;5011885;28;20041;-45
2021/03/05 01:00:28;;;;;;;22.02;12.48;;;19.30;99.90;;;;;;5011985;28;20029;-44
2021/03/05 01:02:54;;;;;;;27.33;12.07;;;19.30;99.90;;;;;;5012164;28;20389;-42
2021/03/05 01:05:20;;;;;;;24.30;12.88;;;19.30;99.90;;;;;;5012246;28;20041;-43
2021/03/05 01:07:45;;;;;;;31.00;12.88;;;19.30;99.90;;;;;;5012675;28;20087;-42
2021/03/05 01:10:12;;;;;;;22.35;12.35;;;19.30;99.90;;;;;;5012618;28;20026;-43
2021/03/05 01:12:38;;;;;;;25.17;12.48;;;19.30;99.90;;;;;;5012796;28;20014;-42
2021/03/05 01:15:06;;;;;;;25.02;13.13;;;19.30;99.90;;;;;;5012135;28;20510;-43
2021/03/05 01:17:32;;;;;;;24.17;12.38;;;19.30;99.90;;;;;;5012366;28;20060;-42
2021/03/05 01:19:58;;;;;;;22.60;12.38;;;19.30;99.90;;;;;;5012726;28;20472;-42
2021/03/05 01:22:24;;;;;;;26.35;12.25;;;19.30;99.90;;;;;;5011882;28;20112;-43
2021/03/05 01:24:50;;;;;;;25.70;13.18;;;19.30;99.90;;;;;;5012291;28;20105;-43
2021/03/05 01:27:16;;;;;;;27.92;11.45;;;19.30;99.90;;;;;;5012090;28;20380;-43
2021/03/05 01:29:43;;;;;;;23.42;12.27;;;19.30;99.90;;;;;;5012354;28;20026;-43
2021/03/05 01:32:09;;;;;;;21.30;10.98;;;19.30;99.90;;;;;;5013313;28;20022;-43
2021/03/05 01:34:35;;;;;;;21.20;11.60;;;19.30;99.90;;;;;;5015517;28;20381;-43
2021/03/05 01:37:01;;;;;;;21.80;11.43;;;19.30;99.90;;;;;;5017597;28;20104;-43
2021/03/05 01:39:27;;;;;;;25.85;12.25;;;19.30;99.90;;;;;;5015844;28;20030;-43
2021/03/05 01:41:52;;;;;;;24.27;11.27;;;19.20;99.90;;;;;;5016196;28;20096;-42
2021/03/05 01:44:18;;;;;;;22.35;10.73;;;19.20;99.90;;;;;;5016053;28;20036;-43
2021/03/05 01:46:44;;;;;;;26.20;11.18;;;19.20;99.90;;;;;;5016101;28;20357;-43
2021/03/05 01:49:11;;;;;;;21.17;11.05;;;19.20;99.90;;;;;;5015872;28;20073;-43
2021/03/05 01:51:38;;;;;;;23.58;11.60;;;19.20;99.90;;;;;;5014510;28;20384;-44
2021/03/05 01:54:05;;;;;;;29.80;11.40;;;19.20;99.90;;;;;;5015797;28;20080;-44
2021/03/05 01:56:33;;;;;;;21.58;11.25;;;19.20;99.90;;;;;;5014917;28;20048;-42
2021/03/05 01:58:59;;;;;;;;;;;19.10;99.90;;;;;;5015952;28;20105;-44
2021/03/05 02:01:27;;;;;;;21.27;11.70;;;19.10;99.90;;;;;;4998209;28;19921;-42
2021/03/05 02:03:53;;;;;;;25.35;11.07;;;19.20;99.90;;;;;;5014247;28;20042;-41
2021/03/05 02:06:21;;;;;;;27.15;11.48;;;19.10;99.90;;;;;;4999005;28;20113;-41
2021/03/05 02:08:47;;;;;;;19.67;10.70;;;19.10;99.90;;;;;;5003845;28;20089;-42
2021/03/05 02:11:16;;;;;;;30.73;10.93;;;19.10;99.90;;;;;;5015538;28;20040;-44
2021/03/05 02:13:42;;;;;;;26.92;11.63;;;19.10;99.90;;;;;;5015076;28;20030;-42
2021/03/05 02:16:37;;;;;;;20.40;10.68;;;19.20;99.90;;;;;;5015453;28;20030;-42
2021/03/05 02:19:31;;;;;;;23.90;11.57;;;19.10;99.90;;;;;;5000496;28;20093;-42
2021/03/05 02:22:20;;;;;;;22.40;11.55;;;19.10;99.90;;;;;;4995829;28;20084;-42
2021/03/05 02:25:10;;;;;;;23.05;11.57;;;19.10;99.90;;;;;;5010009;28;20030;-41
2021/03/05 02:28:01;;;;;;;22.08;11.30;;;19.10;99.90;;;;;;5015554;28;20025;-41
2021/03/05 02:30:51;;;;;;;20.60;11.65;;;19.10;99.90;;;;;;4995911;28;20497;-41
2021/03/05 02:33:27;;;;;;;23.90;11.68;;;19.10;99.90;;;;;;4996515;28;20027;-42
2021/03/05 02:35:55;;;;;;;25.92;11.38;;;19.10;99.90;;;;;;5015220;28;20025;-42
2021/03/05 02:38:25;;;;;;;21.60;12.30;;;19.10;99.90;;;;;;5014142;28;20025;-42
2021/03/05 02:40:53;;;;;;;21.52;11.82;;;19.10;99.90;;;;;;4995809;28;20030;-42
2021/03/05 02:43:22;;;;;;;20.65;10.20;;;19.10;99.90;;;;;;4994503;28;20034;-43
2021/03/05 02:45:58;;;;;;;19.15;10.55;;;19.10;99.90;;;;;;5014828;28;20542;-42
2021/03/05 02:48:29;;;;;;;22.27;10.95;;;19.10;99.90;;;;;;5014377;28;20064;-43
2021/03/05 02:50:58;;;;;;;17.67;10.25;;;19.10;99.90;;;;;;5014717;28;20049;-45
2021/03/05 02:53:27;;;;;;;20.15;11.70;;;19.10;99.90;;;;;;5013967;28;20046;-44
2021/03/05 02:55:58;;;;;;;21.65;11.07;;;19.10;99.90;;;;;;5009937;28;20114;-44
2021/03/05 02:58:26;;;;;;;20.13;10.95;;;19.10;99.90;;;;;;4997221;28;20025;-43
2021/03/05 03:00:53;;;;;;;21.77;11.02;;;19.10;99.90;;;;;;4995289;28;20118;-43
2021/03/05 03:03:21;;;;;;;17.60;11.25;;;19.10;99.90;;;;;;4994147;28;20026;-43
2021/03/05 03:05:50;;;;;;;19.20;10.07;;;19.10;99.90;;;;;;4994991;28;20069;-44
2021/03/05 03:08:20;;;;;;;20.60;10.05;;;19.10;99.90;;;;;;5013858;28;20109;-43
2021/03/05 03:10:47;;;;;;;21.48;11.32;;;19.10;99.90;;;;;;5012550;28;20383;-44
2021/03/05 03:13:14;;;;;;;21.73;11.15;;;19.00;99.90;;;;;;4994043;28;20040;-43
2021/03/05 03:15:41;;;;;;;23.40;11.70;;;19.10;99.90;;;;;;4993960;28;20366;-43
2021/03/05 03:18:11;;;;;;;17.90;10.40;;;19.00;99.90;;;;;;5013081;28;20373;-44
2021/03/05 03:20:37;;;;;;;20.00;10.90;;;19.00;99.90;;;;;;5014252;28;20034;-43
2021/03/05 03:23:07;;;;;;;25.87;12.70;;;19.00;99.90;;;;;;4995572;28;20038;-43
2021/03/05 03:25:33;;;;;;;24.63;11.85;;;19.00;99.90;;;;;;4994239;28;20034;-44
2021/03/05 03:27:59;;;;;;;24.25;11.80;;;19.00;99.90;;;;;;4994932;28;20145;-42
2021/03/05 03:30:25;;;;;;;28.67;11.20;;;19.00;99.90;;;;;;4994061;28;20030;-42
2021/03/05 03:32:52;;;;;;;24.00;11.07;;;19.00;99.90;;;;;;5009010;28;20767;-42
2021/03/05 03:35:18;;;;;;;26.50;12.07;;;19.00;99.90;;;;;;5013733;28;20036;-42
2021/03/05 03:37:45;;;;;;;20.65;10.10;;;19.00;99.90;;;;;;4999746;28;20022;-42
2021/03/05 03:40:18;;;;;;;22.10;11.30;;;19.00;99.90;;;;;;4999072;28;20602;-42
2021/03/05 03:42:45;;;;;;;22.92;10.90;;;19.00;99.90;;;;;;5000998;28;20030;-42
2021/03/05 03:45:13;;;;;;;22.13;11.73;;;19.00;99.90;;;;;;4994366;28;20041;-42
2021/03/05 03:47:39;;;;;;;19.92;11.20;;;19.00;99.90;;;;;;5006067;28;20026;-42
2021/03/05 03:50:13;;;;;;;23.98;10.95;;;19.00;99.90;;;;;;5014270;28;20372;-41
2021/03/05 03:52:53;;;;;;;19.45;10.77;;;19.00;99.90;;;;;;5001899;28;20022;-42
2021/03/05 03:55:19;;;;;;;20.73;12.00;;;19.00;99.90;;;;;;4993974;28;20437;-43
2021/03/05 03:57:47;;;;;;;19.48;10.80;;;19.00;99.90;;;;;;5005490;28;20029;-44
2021/03/05 04:00:16;;;;;;;19.42;10.90;;;19.00;99.90;;;;;;5013338;28;20038;-43
2021/03/05 04:02:48;;;;;;;19.15;10.77;;;19.00;99.90;;;;;;5001894;28;20034;-44
2021/03/05 04:05:19;;;;;;;24.80;12.48;;;19.00;99.90;;;;;;4993428;28;20069;-43
2021/03/05 04:07:46;;;;;;;21.20;11.43;;;19.00;99.90;;;;;;5002988;28;20061;-44
2021/03/05 04:10:13;;;;;;;22.52;10.57;;;19.00;99.90;;;;;;5012910;28;20109;-43
2021/03/05 04:12:40;;;;;;;17.52;9.93;;;18.90;99.90;;;;;;5003164;28;20064;-44
2021/03/05 04:15:07;;;;;;;21.95;10.70;;;19.00;99.90;;;;;;4993277;28;20113;-43
2021/03/05 04:17:32;;;;;;;16.93;9.97;;;18.90;99.90;;;;;;5001265;28;20025;-44
2021/03/05 04:19:59;;;;;;;20.40;10.35;;;19.00;99.90;;;;;;5012745;28;20325;-44
2021/03/05 04:22:26;;;;;;;21.58;10.82;;;18.90;99.90;;;;;;5005796;28;20076;-44
2021/03/05 04:24:52;;;;;;;21.13;11.20;;;19.00;99.90;;;;;;4993078;28;20033;-44
2021/03/05 04:27:18;;;;;;;19.10;10.95;;;18.90;99.90;;;;;;4997787;28;20026;-43
2021/03/05 04:29:44;;;;;;;22.27;10.38;;;18.90;99.90;;;;;;5012776;28;20526;-44
2021/03/05 04:32:10;;;;;;;24.67;11.23;;;18.90;99.90;;;;;;5008939;28;20406;-44
2021/03/05 04:34:36;;;;;;;19.73;10.18;;;18.90;99.90;;;;;;4993682;28;20023;-42
2021/03/05 04:37:02;;;;;;;18.60;11.90;;;18.90;99.90;;;;;;5012957;28;20033;-43
2021/03/05 04:39:28;;;;;;;19.33;10.77;;;18.90;99.90;;;;;;5011413;28;20093;-43
2021/03/05 04:41:53;;;;;;;20.58;11.43;;;18.90;99.90;;;;;;5012428;28;20476;-41
2021/03/05 04:44:20;;;;;;;24.10;10.40;;;18.90;99.90;;;;;;5013059;28;20098;-41
2021/03/05 04:46:45;;;;;;;18.65;11.15;;;18.90;99.90;;;;;;4994949;28;20034;-36
2021/03/05 04:49:11;;;;;;;15.27;9.77;;;18.90;99.90;;;;;;4993991;28;20384;-36
2021/03/05 04:51:37;;;;;;;22.38;11.05;;;18.90;99.90;;;;;;5009168;28;20084;-36
2021/03/05 04:54:03;;;;;;;17.33;9.93;;;18.90;99.90;;;;;;5008565;28;20026;-36
2021/03/05 04:56:29;;;;;;;21.85;11.02;;;18.90;99.90;;;;;;4993659;28;20033;-36
2021/03/05 04:58:55;;;;;;;21.65;10.98;;;18.90;99.90;;;;;;4996224;28;20060;-36
2021/03/05 05:01:21;;;;;;;20.25;10.52;;;18.90;99.90;;;;;;5004768;28;20505;-36
2021/03/05 05:03:47;;;;;;;23.95;11.65;;;18.90;99.90;;;;;;4994770;28;20033;-36
2021/03/05 05:06:13;;;;;;;21.33;11.32;;;18.90;99.90;;;;;;5013442;28;20033;-36
2021/03/05 05:08:39;;;;;;;17.05;9.93;;;18.90;99.90;;;;;;5016680;28;20022;-36
2021/03/05 05:11:05;;;;;;;20.73;10.63;;;18.90;99.90;;;;;;4997738;28;20084;-36
2021/03/05 05:13:31;;;;;;;18.98;11.45;;;18.90;99.90;;;;;;4997672;28;20026;-36
2021/03/05 05:15:57;;;;;;;20.27;11.30;;;18.90;99.90;;;;;;5015574;28;20030;-36
2021/03/05 05:18:23;;;;;;;23.05;12.13;;;18.90;99.90;;;;;;5017207;28;20095;-36
2021/03/05 05:20:49;;;;;;;19.55;11.32;;;18.90;99.90;;;;;;5001120;28;20034;-36
2021/03/05 05:23:15;;;;;;;19.95;10.65;;;18.90;99.90;;;;;;4997521;28;20034;-36
2021/03/05 05:25:41;;;;;;;19.52;10.73;;;18.90;99.90;;;;;;5011778;28;20022;-36
2021/03/05 05:28:07;;;;;;;20.10;11.07;;;18.90;99.90;;;;;;5015410;28;20029;-36
2021/03/05 05:30:32;;;;;;;20.70;12.27;;;18.90;99.90;;;;;;5014709;28;20101;-36
2021/03/05 05:32:58;;;;;;;23.70;11.30;;;18.90;99.90;;;;;;5004791;28;20165;-36
2021/03/05 05:35:24;;;;;;;18.42;10.95;;;18.80;99.90;;;;;;4997057;28;20037;-37
2021/03/05 05:37:50;;;;;;;22.35;11.00;;;18.90;99.90;;;;;;5007605;28;20026;-37
2021/03/05 05:40:17;;;;;;;18.65;10.88;;;18.90;99.90;;;;;;5011787;28;20025;-37
2021/03/05 05:42:46;;;;;;;19.83;10.77;;;18.90;99.90;;;;;;5015442;28;20828;-37
2021/03/05 05:45:12;;;;;;;22.48;12.55;;;18.80;99.90;;;;;;5008454;28;20031;-36
2021/03/05 05:47:38;;;;;;;21.77;11.48;;;18.80;99.90;;;;;;5011559;28;20022;-36
2021/03/05 05:50:07;;;;;;;17.73;10.90;;;18.80;99.90;;;;;;5009619;28;20033;-37
2021/03/05 05:52:34;;;;;;;18.23;11.38;;;18.90;99.90;;;;;;4996870;28;20108;-37
2021/03/05 05:55:01;;;;;;;19.43;11.20;;;18.90;99.90;;;;;;5010923;28;20072;-37
2021/03/05 05:57:28;;;;;;;20.90;10.82;;;18.80;99.90;;;;;;5016462;28;20302;-37
2021/03/05 05:59:57;;;;;;;18.65;11.23;;;18.90;99.90;;;;;;5007264;28;20448;-37
2021/03/05 06:02:23;;;;;;;22.20;11.70;;;18.80;99.90;;;;;;5005418;28;20034;-37
2021/03/05 06:04:53;;;;;;;17.70;11.27;;;18.80;99.90;;;;;;5014554;28;20048;-37
2021/03/05 06:07:19;;;;;;;23.63;12.57;;;18.80;99.90;;;;;;5016300;28;20034;-37
2021/03/05 06:09:51;;;;;;;17.13;10.65;;;18.80;99.90;;;;;;5015582;28;20022;-37
2021/03/05 06:12:17;;;;;;;18.50;10.77;;;18.80;99.90;;;;;;5011455;28;20364;-37
2021/03/05 06:14:44;;;;;;;20.42;11.45;;;18.80;99.90;;;;;;4996650;28;20022;-37
2021/03/05 06:17:10;;;;;;;18.98;10.98;;;18.80;99.90;;;;;;4997687;28;20096;-37
2021/03/05 06:19:37;;;;;;;18.27;11.60;;;18.80;99.90;;;;;;4995947;28;20058;-37
2021/03/05 06:22:17;;;;;;;17.05;10.77;;;18.80;99.90;;;;;;4996550;28;20031;-37
2021/03/05 06:24:44;;;;;;;25.85;12.55;;;18.90;99.90;;;;;;4996526;28;20041;-37
2021/03/05 06:27:10;;;;;;;19.17;10.97;;;18.90;99.90;;;;;;4996739;28;20037;-37
2021/03/05 06:29:48;;;;;;;19.75;10.27;;;18.80;99.90;;;;;;5005025;28;20027;-37
2021/03/05 06:32:19;;;;;;;20.08;10.65;;;18.80;99.90;;;;;;5016007;28;20018;-37
2021/03/05 06:34:53;;;;;;;22.52;11.73;;;18.80;99.90;;;;;;5015843;28;20030;-37
2021/03/05 06:37:23;;;;;;;20.98;11.88;;;18.80;99.90;;;;;;5015885;28;20026;-37
2021/03/05 06:40:02;;;;;;;18.67;10.35;;;18.80;99.90;;;;;;5005188;28;20017;-37
2021/03/05 06:42:28;;;;;;;19.48;10.43;;;18.80;99.90;;;;;;4997622;28;20449;-38
2021/03/05 06:44:54;;;;;;;18.60;11.57;;;18.90;99.90;;;;;;5006042;28;20026;-37
2021/03/05 06:47:21;;;;;;;22.35;11.48;;;18.80;99.90;;;;;;5004364;28;20380;-37
2021/03/05 06:49:49;;;;;;;22.08;11.80;;;18.90;99.90;;;;;;5003251;28;20022;-37
2021/03/05 06:52:17;;;;;;;30.48;18.70;;;18.80;99.90;;;;;;5004668;28;20034;-37
2021/03/05 06:54:44;;;;;;;41.22;28.38;;;18.80;99.90;;;;;;5015501;28;20026;-37
2021/03/05 06:57:25;;;;;;;85.57;62.65;;;18.80;99.90;;;;;;5001732;28;20022;-37
2021/03/05 06:59:51;;;;;;;80.63;58.60;;;18.80;99.90;;;;;;5015831;28;20038;-37
2021/03/05 07:02:27;;;;;;;142.95;105.82;;;18.80;99.90;;;;;;5015381;28;20107;-40
2021/03/05 07:04:53;;;;;;;142.00;109.72;;;18.80;99.90;;;;;;5017023;28;20045;-38
2021/03/05 07:07:20;;;;;;;136.30;103.78;;;18.80;99.90;;;;;;5015724;28;20050;-37
2021/03/05 07:09:47;;;;;;;127.03;95.47;;;18.80;99.90;;;;;;5015043;28;20550;-37
2021/03/05 07:12:18;;;;;;;120.53;94.97;;;18.80;99.90;;;;;;5014204;28;20060;-37
2021/03/05 07:14:46;;;;;;;112.10;87.70;;;18.80;99.90;;;;;;5013890;28;20034;-37
2021/03/05 07:17:13;;;;;;;116.68;91.28;;;18.80;99.90;;;;;;5012958;28;20184;-37
2021/03/05 07:19:39;;;;;;;117.05;88.68;;;18.80;99.90;;;;;;5015257;28;20048;-37
2021/03/05 07:22:08;;;;;;;114.85;82.80;;;18.80;99.90;;;;;;5015043;28;20034;-37
2021/03/05 07:24:39;;;;;;;707.55;568.97;;;18.90;99.90;;;;;;5014791;28;20026;-38
2021/03/05 07:27:09;;;;;;;202.45;155.00;;;18.80;99.90;;;;;;5014630;28;20029;-38
2021/03/05 07:29:44;;;;;;;287.45;226.23;;;18.80;99.90;;;;;;5014131;28;20018;-38
2021/03/05 07:32:14;;;;;;;196.68;152.27;;;18.80;99.90;;;;;;5014753;28;20387;-38
2021/03/05 07:34:49;;;;;;;123.03;90.78;;;18.90;99.90;;;;;;5015020;28;20359;-38
2021/03/05 07:37:18;;;;;;;109.57;80.72;;;18.80;99.90;;;;;;5014871;28;20026;-38
2021/03/05 07:39:50;;;;;;;128.93;97.95;;;18.80;99.90;;;;;;5014579;28;20091;-38
2021/03/05 07:42:18;;;;;;;106.32;80.47;;;18.80;99.90;;;;;;5014694;28;20080;-38
2021/03/05 07:44:45;;;;;;;83.78;57.25;;;18.80;99.90;;;;;;5014382;28;20061;-38
2021/03/05 07:47:14;;;;;;;157.25;120.78;;;18.80;99.90;;;;;;5013773;28;20045;-38
2021/03/05 07:49:40;;;;;;;136.65;104.28;;;18.80;99.90;;;;;;5014476;28;20492;-38
2021/03/05 07:52:08;;;;;;;130.05;97.35;;;18.80;99.90;;;;;;5014384;28;20018;-38
2021/03/05 07:54:40;;;;;;;115.38;88.15;;;18.80;99.90;;;;;;5014354;28;20041;-38
2021/03/05 07:57:15;;;;;;;130.27;99.88;;;18.90;99.90;;;;;;5014294;28;20895;-38
2021/03/05 07:59:40;;;;;;;138.40;104.68;;;18.90;99.90;;;;;;5014403;28;20037;-38
2021/03/05 08:02:07;;;;;;;131.77;106.68;;;19.00;99.90;;;;;;5014204;28;20034;-38
2021/03/05 08:05:05;;;;;;;132.00;103.18;;;19.00;99.90;;;;;;5013936;28;20073;-38
2021/03/05 08:07:34;;;;;;;131.18;101.85;;;19.00;99.90;;;;;;5009825;28;20037;-37
2021/03/05 08:10:00;;;;;;;130.35;102.38;;;19.10;99.90;;;;;;5013987;28;20017;-40
2021/03/05 08:12:28;;;;;;;122.57;96.22;;;19.10;99.90;;;;;;5014207;28;20034;-38
2021/03/05 08:15:09;;;;;;;125.63;94.43;;;19.10;99.90;;;;;;5013947;28;20349;-38
2021/03/05 08:17:38;;;;;;;117.20;96.47;;;19.20;99.90;;;;;;5013783;28;20408;-38
2021/03/05 08:20:05;;;;;;;110.57;89.93;;;19.20;99.90;;;;;;5013852;28;20026;-38
2021/03/05 08:22:32;;;;;;;123.03;95.80;;;19.20;99.90;;;;;;5013455;28;20044;-38
2021/03/05 08:25:21;;;;;;;109.38;88.43;;;19.30;99.90;;;;;;5013615;28;20544;-36
2021/03/05 08:27:47;;;;;;;262.73;215.80;;;19.30;99.90;;;;;;5013855;28;20088;-39
2021/03/05 08:30:14;;;;;;;194.25;156.55;;;19.40;99.90;;;;;;5009546;28;20169;-37
2021/03/05 08:32:50;;;;;;;146.35;113.65;;;19.30;99.90;;;;;;5009596;28;20021;-38
2021/03/05 08:35:29;;;;;;;131.90;106.00;;;19.40;99.90;;;;;;5003150;28;20027;-45
2021/03/05 08:37:58;;;;;;;124.40;96.18;;;19.40;99.90;;;;;;5017647;28;20038;-45
2021/03/05 08:41:05;;;;;;;112.03;88.10;;;19.40;99.90;;;;;;5001452;28;20456;-44
2021/03/05 08:43:36;;;;;;;95.93;75.88;;;19.40;99.90;;;;;;5000924;28;20117;-44
2021/03/05 08:46:07;;;;;;;92.28;70.10;;;19.40;99.90;;;;;;5001960;28;20461;-45
2021/03/05 08:48:35;;;;;;;75.95;59.28;;;19.40;99.90;;;;;;5002257;28;20417;-45
2021/03/05 08:51:02;;;;;;;;;;;19.40;99.90;;;;;;5001619;28;20030;-45
2021/03/05 08:53:28;;;;;;;73.85;54.58;;;19.40;99.90;;;;;;4999793;28;20045;-45
2021/03/05 08:55:54;;;;;;;67.05;49.80;;;19.40;99.90;;;;;;4992760;28;20133;-45
2021/03/05 08:58:20;;;;;;;62.00;45.22;;;19.40;99.90;;;;;;4992681;28;20069;-46
2021/03/05 09:00:46;;;;;;;55.38;42.10;;;19.40;99.90;;;;;;4993080;28;20476;-45
2021/03/05 09:03:14;;;;;;;52.08;39.35;;;19.50;99.90;;;;;;4992555;28;20488;-45
2021/03/05 09:05:42;;;;;;;44.80;34.88;;;19.50;99.90;;;;;;4992332;28;20109;-44
2021/03/05 09:08:10;;;;;;;49.40;33.63;;;19.50;99.90;;;;;;4992653;28;20076;-45
2021/03/05 09:10:51;;;;;;;44.58;30.08;;;19.50;99.90;;;;;;4992778;28;20125;-44
2021/03/05 09:13:19;;;;;;;54.33;25.20;;;19.50;99.90;;;;;;4992869;28;20026;-42
2021/03/05 09:15:48;;;;;;;292.67;228.65;;;19.50;99.90;;;;;;4993844;28;20061;-42
2021/03/05 09:18:17;;;;;;;164.45;123.40;;;19.60;99.90;;;;;;4993433;28;20038;-43
2021/03/05 09:20:48;;;;;;;150.90;97.47;;;19.50;99.90;;;;;;4993465;28;20038;-40
2021/03/05 09:23:36;;;;;;;122.35;84.00;;;19.50;99.90;;;;;;4993369;28;20473;-41
2021/03/05 09:26:06;;;;;;;101.38;59.75;;;19.50;99.90;;;;;;4993180;28;20468;-42
2021/03/05 09:28:49;;;;;;;83.25;45.47;;;19.60;99.90;;;;;;4993243;28;20121;-42
2021/03/05 09:31:17;;;;;;;125.07;84.25;;;19.50;99.90;;;;;;4993422;28;20023;-41
2021/03/05 09:33:45;;;;;;;161.15;118.28;;;19.50;99.90;;;;;;5004937;28;20026;-41
2021/03/05 09:36:12;;;;;;;;;;;19.60;99.90;;;;;;5012067;28;20030;-40
2021/03/05 09:38:43;;;;;;;88.82;65.82;;;19.50;99.90;;;;;;5011912;28;20352;-41
2021/03/05 09:41:11;;;;;;;81.35;56.00;;;19.50;99.90;;;;;;5011503;28;20030;-42
2021/03/05 09:43:37;;;;;;;82.45;50.03;;;19.60;99.90;;;;;;5012448;28;20026;-41
2021/03/05 09:46:25;;;;;;;75.97;51.33;;;19.60;99.90;;;;;;5012709;28;20133;-42
2021/03/05 09:48:52;;;;;;;74.28;46.95;;;19.50;99.90;;;;;;5012870;28;20057;-41
2021/03/05 09:51:19;;;;;;;70.68;45.25;;;19.60;99.90;;;;;;5012963;28;20499;-43
2021/03/05 09:53:56;;;;;;;60.10;42.00;;;19.60;99.90;;;;;;5014555;28;20040;-42
2021/03/05 09:56:27;;;;;;;59.35;41.95;;;19.70;99.90;;;;;;5016250;28;20029;-43
2021/03/05 09:59:03;;;;;;;57.78;39.00;;;19.70;99.90;;;;;;5016464;28;20034;-41
2021/03/05 10:01:33;;;;;;;59.53;38.25;;;19.80;99.90;;;;;;5016300;28;20033;-41
2021/03/05 10:04:00;;;;;;;55.33;37.58;;;19.80;99.90;;;;;;5016194;28;20053;-43
2021/03/05 10:06:28;;;;;;;51.42;36.17;;;19.80;99.90;;;;;;5016095;28;20483;-42
2021/03/05 10:08:59;;;;;;;;;;;19.80;99.90;;;;;;5016319;28;20022;-42
2021/03/05 10:11:38;;;;;;;56.65;34.72;;;19.90;99.90;;;;;;5016307;28;19911;-43
2021/03/05 10:14:32;;;;;;;46.88;33.55;;;19.90;99.90;;;;;;5016049;28;20101;-42
2021/03/05 10:17:18;;;;;;;46.22;32.30;;;19.90;99.90;;;;;;5015138;28;20053;-43
2021/03/05 10:19:45;;;;;;;51.38;28.88;;;19.90;99.90;;;;;;5015621;28;20022;-42
2021/03/05 10:22:13;;;;;;;51.03;30.23;;;19.90;99.90;;;;;;5015908;28;20439;-41
2021/03/05 10:24:40;;;;;;;48.55;29.48;;;20.00;99.90;;;;;;5015640;28;20141;-43
2021/03/05 10:27:12;;;;;;;43.63;27.50;;;20.00;99.90;;;;;;5015776;28;20022;-42
2021/03/05 10:29:53;;;;;;;44.88;28.73;;;20.00;99.90;;;;;;5015478;28;20018;-44
2021/03/05 10:32:28;;;;;;;44.90;26.15;;;20.00;99.90;;;;;;5015725;28;20022;-42
2021/03/05 10:34:58;;;;;;;48.20;25.88;;;20.10;99.90;;;;;;5015323;28;20054;-43
2021/03/05 10:37:25;;;;;;;45.80;24.55;;;20.10;99.90;;;;;;5015773;28;20033;-41
2021/03/05 10:39:51;;;;;;;44.55;24.42;;;20.20;99.90;;;;;;5015114;28;20797;-42
2021/03/05 10:42:19;;;;;;;41.67;24.38;;;20.20;99.90;;;;;;5015256;28;20524;-42
2021/03/05 10:44:47;;;;;;;;;;;20.20;99.90;;;;;;5015752;28;20026;-43
2021/03/05 10:47:15;;;;;;;39.30;23.17;;;20.30;99.90;;;;;;5014233;28;19921;-42
2021/03/05 10:49:43;;;;;;;40.72;23.95;;;20.20;99.90;;;;;;5015218;28;20033;-44
2021/03/05 10:52:11;;;;;;;40.30;23.65;;;20.20;99.90;;;;;;5011940;28;20057;-44
2021/03/05 10:54:40;;;;;;;37.72;22.25;;;20.30;99.90;;;;;;5001142;28;20052;-43
2021/03/05 10:57:13;;;;;;;39.80;22.25;;;20.30;99.90;;;;;;5012346;28;20026;-41
2021/03/05 10:59:40;;;;;;;69.43;47.20;;;20.30;99.90;;;;;;5015140;28;20062;-43
2021/03/05 11:02:07;;;;;;;58.75;43.13;;;20.30;99.90;;;;;;5015139;28;20037;-46
2021/03/05 11:04:33;;;;;;;57.42;37.90;;;20.30;99.90;;;;;;5013921;28;20061;-44
2021/03/05 11:07:01;;;;;;;48.60;33.70;;;20.20;99.90;;;;;;5015001;28;20403;-45
2021/03/05 11:09:28;;;;;;;47.13;30.40;;;20.20;99.90;;;;;;5014813;28;20053;-43
2021/03/05 11:11:54;;;;;;;52.28;28.92;;;20.10;99.90;;;;;;5015391;28;20049;-43
2021/03/05 11:14:21;;;;;;;42.72;27.58;;;20.20;99.90;;;;;;5014786;28;20018;-43
2021/03/05 11:16:47;;;;;;;41.63;25.67;;;20.30;99.90;;;;;;5014943;28;20026;-41
2021/03/05 11:19:13;;;;;;;40.40;24.20;;;20.30;99.90;;;;;;5014682;28;20029;-41
2021/03/05 11:21:39;;;;;;;47.45;26.75;;;20.40;99.90;;;;;;5007507;28;20034;-41
2021/03/05 11:24:07;;;;;;;34.90;23.33;;;20.40;99.90;;;;;;5002807;28;20456;-42
2021/03/05 11:26:33;;;;;;;38.92;23.67;;;20.40;99.90;;;;;;5013925;28;20087;-41
2021/03/05 11:28:59;;;;;;;33.28;22.33;;;20.40;99.90;;;;;;5014750;28;20112;-40
2021/03/05 11:31:25;;;;;;;40.15;20.58;;;20.40;99.90;;;;;;5014451;28;20022;-43
2021/03/05 11:33:52;;;;;;;35.83;18.23;;;20.30;99.90;;;;;;5014213;28;20049;-43
2021/03/05 11:36:19;;;;;;;28.10;16.40;;;20.20;99.90;;;;;;5013257;28;20084;-43
2021/03/05 11:38:47;;;;;;;37.72;15.20;;;20.30;99.90;;;;;;5014006;28;20022;-40
2021/03/05 11:41:13;;;;;;;32.13;15.52;;;20.20;99.90;;;;;;5012995;28;20246;-43
2021/03/05 11:43:47;;;;;;;33.25;14.80;;;20.30;99.90;;;;;;5014081;28;20025;-42
2021/03/05 11:46:14;;;;;;;27.50;12.85;;;20.20;99.90;;;;;;5014152;28;20447;-42
2021/03/05 11:48:40;;;;;;;28.95;13.98;;;20.20;99.90;;;;;;5013745;28;20353;-43
2021/03/05 11:51:07;;;;;;;27.63;12.18;;;20.20;99.90;;;;;;5014129;28;20033;-43
2021/03/05 11:53:33;;;;;;;39.08;13.73;;;20.30;99.90;;;;;;5014310;28;20032;-43
2021/03/05 11:55:59;;;;;;;33.85;12.40;;;20.30;99.90;;;;;;5014187;28;20091;-42
2021/03/05 11:58:25;;;;;;;33.15;12.45;;;20.30;99.90;;;;;;5013954;28;20105;-42
2021/03/05 12:00:51;;;;;;;25.85;11.85;;;20.20;99.90;;;;;;5014415;28;20539;-43
2021/03/05 12:03:17;;;;;;;33.42;13.45;;;20.20;99.90;;;;;;5014016;28;20160;-42
2021/03/05 12:05:43;;;;;;;28.23;12.25;;;20.30;99.90;;;;;;5013617;28;20045;-42
2021/03/05 12:08:09;;;;;;;29.10;12.63;;;20.30;99.90;;;;;;5013860;28;20026;-43
2021/03/05 12:10:35;;;;;;;32.72;12.18;;;20.40;99.90;;;;;;5013705;28;20026;-41
2021/03/05 12:13:01;;;;;;;31.77;11.15;;;20.30;99.90;;;;;;5013851;28;20021;-42
2021/03/05 12:15:27;;;;;;;30.48;13.43;;;20.30;99.90;;;;;;5013445;28;20049;-41
2021/03/05 12:17:52;;;;;;;36.53;12.00;;;20.30;99.90;;;;;;5013678;28;20419;-42
2021/03/05 12:20:18;;;;;;;23.27;12.02;;;20.30;99.90;;;;;;5013766;28;20753;-41
2021/03/05 12:22:44;;;;;;;31.00;12.32;;;20.20;99.90;;;;;;5013763;28;20106;-42
2021/03/05 12:25:11;;;;;;;112.20;78.70;;;20.30;99.90;;;;;;5012030;28;20113;-45
2021/03/05 12:27:37;;;;;;;67.83;47.37;;;20.30;99.90;;;;;;5013608;28;20022;-42
2021/03/05 12:30:04;;;;;;;60.40;35.13;;;20.30;99.90;;;;;;5013345;28;20026;-41
2021/03/05 12:32:30;;;;;;;53.03;31.55;;;20.20;99.90;;;;;;5013468;28;20555;-41
2021/03/05 12:34:55;;;;;;;46.03;24.73;;;20.20;99.90;;;;;;5013456;28;20034;-44